Time;durP1;ratioP1;P1;durP2;ratioP2;P2;SDS_P1;SDS_P2;PMS_P1;PMS_P2;Temp;Humidity;BMP_temperature;BMP_pressure;BME280_temperature;BME280_humidity;BME280_pressure;Samples;Min_cycle;Max_cycle;Signal;HPM_P1;HPM_P2
2022/10/08 00:00:52;;;;;;;5.22;3.70;;;9.10;99.90;;;;;;5034920;28;20036;-71
2022/10/08 00:03:19;;;;;;;5.30;2.85;;;9.10;99.90;;;;;;5035108;28;20025;-71
2022/10/08 00:05:57;;;;;;;4.88;3.70;;;9.00;99.90;;;;;;5035040;28;20104;-71
2022/10/08 00:08:24;;;;;;;7.07;3.50;;;8.90;99.90;;;;;;5034986;28;20080;-71
2022/10/08 00:10:59;;;;;;;5.45;3.30;;;8.80;99.90;;;;;;5034865;28;20021;-71
2022/10/08 00:13:27;;;;;;;5.82;3.20;;;8.80;99.90;;;;;;5034902;28;20566;-71
2022/10/08 00:15:53;;;;;;;3.67;2.65;;;8.80;99.90;;;;;;5034676;28;20105;-71
2022/10/08 00:18:20;;;;;;;5.65;3.20;;;8.90;99.90;;;;;;5034820;28;20026;-71
2022/10/08 00:20:46;;;;;;;4.90;3.20;;;8.90;99.90;;;;;;5033503;28;20033;-71
2022/10/08 00:23:12;;;;;;;4.20;3.05;;;8.80;99.90;;;;;;5033684;28;20105;-71
2022/10/08 00:25:42;;;;;;;3.90;2.95;;;8.80;99.90;;;;;;5035281;28;20528;-71
2022/10/08 00:28:12;;;;;;;4.67;3.07;;;8.80;99.90;;;;;;5034665;28;20078;-71
2022/10/08 00:30:39;;;;;;;5.30;3.55;;;8.80;99.90;;;;;;5034259;28;20643;-71
2022/10/08 00:33:06;;;;;;;7.28;4.10;;;8.80;99.90;;;;;;5034474;28;20022;-71
2022/10/08 00:35:37;;;;;;;11.73;4.88;;;8.80;99.90;;;;;;5033599;28;20053;-71
2022/10/08 00:38:04;;;;;;;8.07;4.53;;;8.80;99.90;;;;;;5034464;28;20026;-71
2022/10/08 00:40:29;;;;;;;10.20;4.68;;;8.80;99.90;;;;;;5034575;28;20026;-71
2022/10/08 00:42:55;;;;;;;7.57;4.85;;;8.80;99.90;;;;;;5034265;28;20075;-71
2022/10/08 00:45:21;;;;;;;9.50;4.93;;;8.80;99.90;;;;;;5034552;28;20036;-71
2022/10/08 00:47:48;;;;;;;7.85;4.80;;;8.80;99.90;;;;;;5034245;28;20037;-71
2022/10/08 00:50:22;;;;;;;8.60;4.88;;;8.70;99.90;;;;;;5033277;28;20042;-71
2022/10/08 00:52:54;;;;;;;11.88;5.35;;;8.70;99.90;;;;;;5032800;28;20160;-71
2022/10/08 00:55:22;;;;;;;8.27;4.40;;;8.60;99.90;;;;;;5034188;28;20026;-71
2022/10/08 00:57:49;;;;;;;10.23;5.10;;;8.70;99.90;;;;;;5034017;28;20334;-71
2022/10/08 01:00:19;;;;;;;7.38;4.30;;;8.70;99.90;;;;;;5034018;28;20062;-71
2022/10/08 01:02:45;;;;;;;6.90;3.90;;;8.70;99.90;;;;;;5033842;28;20033;-71
2022/10/08 01:05:14;;;;;;;9.85;4.18;;;8.60;99.90;;;;;;5033935;28;20090;-71
2022/10/08 01:07:51;;;;;;;6.43;3.42;;;8.60;99.90;;;;;;5033887;28;20048;-71
2022/10/08 01:10:37;;;;;;;4.22;2.97;;;8.60;99.90;;;;;;5033744;28;20029;-71
2022/10/08 01:13:33;;;;;;;6.18;3.35;;;8.50;99.90;;;;;;5033768;28;20028;-71
2022/10/08 01:16:05;;;;;;;4.25;2.92;;;8.50;99.90;;;;;;5033534;28;20022;-71
2022/10/08 01:18:51;;;;;;;4.93;3.08;;;8.40;99.90;;;;;;5033698;28;20024;-71
2022/10/08 01:21:51;;;;;;;5.20;3.13;;;8.40;99.90;;;;;;5034177;28;20017;-71
2022/10/08 01:27:30;;;;;;;4.47;2.92;;;8.40;99.90;;;;;;5033886;28;20040;-71
2022/10/08 01:30:01;;;;;;;5.05;3.25;;;8.40;99.90;;;;;;5031951;28;20029;-71
2022/10/08 01:32:33;;;;;;;8.47;3.40;;;8.40;99.90;;;;;;5032159;28;20063;-71
2022/10/08 01:35:02;;;;;;;5.10;3.45;;;8.40;99.90;;;;;;5033480;28;20256;-71
2022/10/08 01:37:38;;;;;;;4.43;2.92;;;8.40;99.90;;;;;;5033337;28;20405;-71
2022/10/08 01:40:09;;;;;;;6.15;3.42;;;8.30;99.90;;;;;;5033340;28;20017;-71
2022/10/08 01:42:38;;;;;;;5.32;3.13;;;8.30;99.90;;;;;;5033659;28;20108;-71
2022/10/08 01:45:09;;;;;;;9.48;3.42;;;8.30;99.90;;;;;;5033080;28;20087;-71
2022/10/08 01:47:39;;;;;;;4.90;3.13;;;8.30;99.90;;;;;;5033578;28;20500;-71
2022/10/08 01:50:12;;;;;;;8.47;3.80;;;8.20;99.90;;;;;;5033790;28;20431;-71
2022/10/08 01:52:51;;;;;;;11.63;3.58;;;8.20;99.90;;;;;;5033417;28;20025;-71
2022/10/08 01:55:37;;;;;;;7.22;3.92;;;8.20;99.90;;;;;;5033222;28;20022;-71
2022/10/08 01:58:17;;;;;;;7.25;3.67;;;8.20;99.90;;;;;;5033438;28;20049;-71
2022/10/08 02:00:47;;;;;;;6.57;3.70;;;8.20;99.90;;;;;;5033110;28;20108;-71
2022/10/08 02:03:13;;;;;;;6.70;3.65;;;8.10;99.90;;;;;;5033024;28;20026;-71
2022/10/08 02:05:43;;;;;;;8.57;3.75;;;8.10;99.90;;;;;;5033328;28;20136;-71
2022/10/08 02:08:09;;;;;;;6.33;3.40;;;8.10;99.90;;;;;;5033393;28;20128;-71
2022/10/08 02:10:35;;;;;;;6.78;3.45;;;8.10;99.90;;;;;;5031582;28;20091;-71
2022/10/08 02:13:02;;;;;;;7.85;3.00;;;8.10;99.90;;;;;;5031915;28;20022;-71
2022/10/08 02:15:36;;;;;;;6.50;4.25;;;8.00;99.90;;;;;;5032717;28;20021;-71
2022/10/08 02:18:26;;;;;;;7.35;4.40;;;8.00;99.90;;;;;;5033031;28;20026;-71
2022/10/08 02:20:58;;;;;;;10.07;4.45;;;8.00;99.90;;;;;;5033319;28;20112;-71
2022/10/08 02:24:02;;;;;;;9.65;4.60;;;8.00;99.90;;;;;;5033112;28;20017;-71
2022/10/08 02:26:43;;;;;;;25.02;9.70;;;8.00;99.90;;;;;;5024654;28;20044;-72
2022/10/08 02:29:19;;;;;;;25.85;12.05;;;8.00;99.90;;;;;;5032895;28;20082;-72
2022/10/08 02:31:58;;;;;;;25.35;12.90;;;8.00;99.90;;;;;;5032707;28;20021;-72
2022/10/08 02:34:49;;;;;;;27.50;10.98;;;8.00;99.90;;;;;;5033358;28;20028;-71
2022/10/08 02:37:26;;;;;;;16.80;9.73;;;8.00;99.90;;;;;;5032860;28;20026;-72
2022/10/08 02:40:01;;;;;;;16.90;9.60;;;8.00;99.90;;;;;;5031430;28;20030;-71
2022/10/08 02:42:30;;;;;;;13.30;8.65;;;8.00;99.90;;;;;;5032998;28;20144;-72
2022/10/08 02:45:07;;;;;;;16.27;8.35;;;8.00;99.90;;;;;;5032730;28;20108;-71
2022/10/08 02:47:37;;;;;;;14.93;8.95;;;8.00;99.90;;;;;;5036800;28;20018;-71
2022/10/08 02:50:08;;;;;;;16.17;7.85;;;8.00;99.90;;;;;;5037019;28;20068;-71
2022/10/08 02:52:39;;;;;;;12.23;6.30;;;8.00;99.90;;;;;;5035364;28;20045;-71
2022/10/08 02:55:28;;;;;;;11.57;5.27;;;8.00;99.90;;;;;;5036795;28;20432;-71
2022/10/08 02:58:00;;;;;;;8.32;4.13;;;7.90;99.90;;;;;;5036307;28;20739;-71
2022/10/08 03:00:33;;;;;;;10.13;4.35;;;7.90;99.90;;;;;;5036323;28;20033;-71
2022/10/08 03:03:13;;;;;;;8.10;4.45;;;7.80;99.90;;;;;;5036463;28;20033;-71
2022/10/08 03:05:41;;;;;;;6.20;4.18;;;7.80;99.90;;;;;;5036462;28;20025;-71
2022/10/08 03:08:11;;;;;;;5.18;3.83;;;7.80;99.90;;;;;;5036151;28;20051;-72
2022/10/08 03:10:38;;;;;;;5.53;3.05;;;7.80;99.90;;;;;;5035987;28;20032;-72
2022/10/08 03:13:05;;;;;;;6.93;3.58;;;7.70;99.90;;;;;;5036024;28;20093;-72
2022/10/08 03:15:33;;;;;;;4.80;3.22;;;7.70;99.90;;;;;;5035854;28;20029;-72
2022/10/08 03:18:03;;;;;;;5.40;3.17;;;7.70;99.90;;;;;;5036451;28;20109;-72
2022/10/08 03:20:29;;;;;;;5.60;3.20;;;7.70;99.90;;;;;;5036188;28;20030;-71
2022/10/08 03:22:59;;;;;;;4.82;3.35;;;7.70;99.90;;;;;;5035796;28;20029;-71
2022/10/08 03:25:25;;;;;;;5.45;3.65;;;7.70;99.90;;;;;;5035858;28;20433;-71
2022/10/08 03:27:50;;;;;;;6.30;4.32;;;7.70;99.90;;;;;;5036275;28;20036;-72
2022/10/08 03:30:16;;;;;;;7.38;4.22;;;7.70;99.90;;;;;;5035760;28;20543;-72
2022/10/08 03:32:42;;;;;;;13.27;5.32;;;7.70;99.90;;;;;;5035613;28;20022;-72
2022/10/08 03:35:08;;;;;;;9.02;4.72;;;7.70;99.90;;;;;;5036648;28;20335;-71
2022/10/08 03:37:33;;;;;;;8.48;4.68;;;7.70;99.90;;;;;;5034188;28;20034;-71
2022/10/08 03:39:59;;;;;;;7.05;4.53;;;7.60;99.90;;;;;;5035386;28;20115;-71
2022/10/08 03:42:24;;;;;;;6.88;3.70;;;7.60;99.90;;;;;;5035673;28;20048;-71
2022/10/08 03:44:50;;;;;;;6.20;3.20;;;7.60;99.90;;;;;;5035663;28;20029;-72
2022/10/08 03:47:16;;;;;;;6.18;3.70;;;7.60;99.90;;;;;;5035166;28;20080;-71
2022/10/08 03:49:41;;;;;;;6.15;3.67;;;7.50;99.90;;;;;;5035277;28;20505;-71
2022/10/08 03:52:07;;;;;;;6.18;3.63;;;7.50;99.90;;;;;;5035505;28;20381;-71
2022/10/08 03:54:34;;;;;;;6.43;3.92;;;7.50;99.90;;;;;;5035824;28;20464;-72
2022/10/08 03:57:01;;;;;;;6.60;4.05;;;7.50;99.90;;;;;;5035119;28;20018;-72
2022/10/08 03:59:27;;;;;;;6.82;3.88;;;7.50;99.90;;;;;;5035473;28;20104;-71
2022/10/08 04:01:52;;;;;;;7.78;4.50;;;7.50;99.90;;;;;;5034805;28;20480;-72
2022/10/08 04:04:18;;;;;;;6.97;4.00;;;7.50;99.90;;;;;;5035113;28;20030;-72
2022/10/08 04:06:44;;;;;;;6.43;4.13;;;7.40;99.90;;;;;;5035111;28;20053;-72
2022/10/08 04:09:10;;;;;;;7.72;4.50;;;7.40;99.90;;;;;;5035053;28;20076;-71
2022/10/08 04:11:36;;;;;;;5.93;3.63;;;7.40;99.90;;;;;;5034861;28;20026;-72
2022/10/08 04:14:02;;;;;;;6.55;3.70;;;7.40;99.90;;;;;;5034858;28;20043;-72
2022/10/08 04:16:27;;;;;;;5.70;3.55;;;7.40;99.90;;;;;;5034631;28;20052;-71
2022/10/08 04:18:53;;;;;;;6.28;3.88;;;7.40;99.90;;;;;;5034825;28;20161;-72
2022/10/08 04:21:19;;;;;;;8.23;4.97;;;7.40;99.90;;;;;;5035055;28;20029;-71
2022/10/08 04:23:48;;;;;;;9.95;5.97;;;7.40;99.90;;;;;;5033386;28;20029;-71
2022/10/08 04:26:14;;;;;;;10.20;7.63;;;7.40;99.90;;;;;;5034755;28;20425;-71
2022/10/08 04:28:43;;;;;;;9.82;6.20;;;7.40;99.90;;;;;;5034686;28;20417;-72
2022/10/08 04:31:17;;;;;;;8.05;5.13;;;7.40;99.90;;;;;;5034454;28;20040;-72
2022/10/08 04:33:43;;;;;;;11.65;7.03;;;7.40;99.90;;;;;;5033239;28;20025;-72
2022/10/08 04:36:15;;;;;;;13.85;9.05;;;7.40;99.90;;;;;;5034989;28;20079;-72
2022/10/08 04:38:42;;;;;;;14.57;8.25;;;7.50;99.90;;;;;;5034763;28;20112;-72
2022/10/08 04:41:13;;;;;;;30.48;15.40;;;7.50;99.90;;;;;;5034851;28;20032;-72
2022/10/08 04:43:39;;;;;;;;;;;7.40;99.90;;;;;;5034800;28;20424;-72
2022/10/08 04:46:07;;;;;;;57.45;26.00;;;7.50;99.90;;;;;;5032792;28;20019;-72
2022/10/08 04:48:33;;;;;;;35.35;16.35;;;7.50;99.90;;;;;;5034429;28;20033;-72
2022/10/08 04:51:01;;;;;;;17.60;8.75;;;7.50;99.90;;;;;;5034110;28;20375;-72
2022/10/08 04:53:27;;;;;;;12.10;5.57;;;7.50;99.90;;;;;;5034064;28;20032;-72
2022/10/08 04:55:54;;;;;;;7.53;4.60;;;7.50;99.90;;;;;;5034130;28;20033;-72
2022/10/08 04:58:20;;;;;;;6.95;4.47;;;7.40;99.90;;;;;;5034089;28;20025;-72
2022/10/08 05:00:46;;;;;;;7.85;4.72;;;7.40;99.90;;;;;;5034081;28;20385;-72
2022/10/08 05:03:12;;;;;;;9.05;4.78;;;7.40;99.90;;;;;;5034157;28;20084;-72
2022/10/08 05:05:43;;;;;;;7.53;4.47;;;7.40;99.90;;;;;;5033929;28;20038;-72
2022/10/08 05:08:09;;;;;;;7.23;4.47;;;7.40;99.90;;;;;;5033619;28;20393;-72
2022/10/08 05:10:35;;;;;;;7.03;4.30;;;7.40;99.90;;;;;;5032471;28;20022;-72
2022/10/08 05:13:01;;;;;;;9.32;5.10;;;7.40;99.90;;;;;;5034006;28;20044;-72
2022/10/08 05:15:27;;;;;;;9.48;4.88;;;7.40;99.90;;;;;;5033765;28;20101;-72
2022/10/08 05:17:53;;;;;;;8.93;5.05;;;7.40;99.90;;;;;;5033666;28;20074;-71
2022/10/08 05:20:18;;;;;;;8.02;5.22;;;7.40;99.90;;;;;;5032393;28;20058;-72
2022/10/08 05:22:44;;;;;;;9.60;5.60;;;7.40;99.90;;;;;;5033662;28;20076;-72
2022/10/08 05:25:10;;;;;;;11.38;6.05;;;7.40;99.90;;;;;;5033625;28;20490;-72
2022/10/08 05:27:35;;;;;;;11.48;6.05;;;7.40;99.90;;;;;;5033525;28;20112;-72
2022/10/08 05:30:02;;;;;;;11.02;6.88;;;7.30;99.90;;;;;;5033675;28;20083;-72
2022/10/08 05:32:28;;;;;;;11.27;6.45;;;7.30;99.90;;;;;;5033224;28;20013;-72
2022/10/08 05:34:53;;;;;;;7.90;5.13;;;7.40;99.90;;;;;;5033950;28;20040;-72
2022/10/08 05:37:19;;;;;;;6.28;4.43;;;7.30;99.90;;;;;;5033445;28;20029;-72
2022/10/08 05:39:46;;;;;;;5.40;3.58;;;7.30;99.90;;;;;;5033362;28;20489;-72
2022/10/08 05:42:12;;;;;;;6.28;4.00;;;7.30;99.90;;;;;;5033805;28;20108;-72
2022/10/08 05:44:37;;;;;;;4.80;3.25;;;7.30;99.90;;;;;;5033596;28;20589;-72
2022/10/08 05:47:03;;;;;;;6.45;3.30;;;7.20;99.90;;;;;;5033017;28;20129;-71
2022/10/08 05:49:29;;;;;;;5.38;3.53;;;7.20;99.90;;;;;;5033513;28;20033;-72
2022/10/08 05:51:54;;;;;;;5.65;3.72;;;7.30;99.90;;;;;;5033291;28;20100;-72
2022/10/08 05:54:20;;;;;;;4.18;3.03;;;7.20;99.90;;;;;;5033207;28;20032;-72
2022/10/08 05:56:46;;;;;;;5.25;3.58;;;7.30;99.90;;;;;;5033444;28;20076;-72
2022/10/08 05:59:19;;;;;;;8.80;4.18;;;7.30;99.90;;;;;;5033403;28;20049;-72
2022/10/08 06:01:45;;;;;;;5.50;3.63;;;7.30;99.90;;;;;;5032949;28;20393;-72
2022/10/08 06:04:11;;;;;;;7.55;4.10;;;7.30;99.90;;;;;;5033296;28;20044;-72
2022/10/08 06:06:39;;;;;;;7.90;3.90;;;7.40;99.90;;;;;;5031742;28;20033;-72
2022/10/08 06:09:06;;;;;;;9.50;4.03;;;7.30;99.90;;;;;;5033087;28;20500;-72
2022/10/08 06:11:33;;;;;;;5.68;3.88;;;7.30;99.90;;;;;;5032951;28;20076;-72
2022/10/08 06:14:00;;;;;;;9.57;5.07;;;7.30;99.90;;;;;;5031730;28;20053;-72
2022/10/08 06:16:26;;;;;;;8.18;5.50;;;7.30;99.90;;;;;;5032794;28;20034;-72
2022/10/08 06:18:52;;;;;;;7.63;4.68;;;7.30;99.90;;;;;;5033269;28;20022;-72
2022/10/08 06:21:20;;;;;;;8.60;5.25;;;7.40;99.90;;;;;;5034617;28;20030;-72
2022/10/08 06:23:49;;;;;;;8.35;5.63;;;7.40;99.90;;;;;;5036111;28;20420;-72
2022/10/08 06:26:20;;;;;;;8.10;5.30;;;7.40;99.90;;;;;;5037214;28;20030;-72
2022/10/08 06:28:47;;;;;;;7.15;4.97;;;7.40;99.90;;;;;;5037235;28;20025;-72
2022/10/08 06:31:13;;;;;;;8.65;4.53;;;7.40;99.90;;;;;;5036595;28;20029;-72
2022/10/08 06:33:39;;;;;;;7.32;4.90;;;7.40;99.90;;;;;;5036847;28;20030;-72
2022/10/08 06:36:25;;;;;;;6.32;4.45;;;7.40;99.90;;;;;;5036784;28;20026;-72
2022/10/08 06:38:53;;;;;;;9.88;5.38;;;7.40;99.90;;;;;;5037071;28;20037;-72
2022/10/08 06:41:19;;;;;;;8.93;4.85;;;7.40;99.90;;;;;;5036668;28;20065;-72
2022/10/08 06:43:46;;;;;;;8.15;5.03;;;7.50;99.90;;;;;;5036597;28;20033;-72
2022/10/08 06:46:12;;;;;;;10.20;5.13;;;7.60;99.90;;;;;;5036560;28;20390;-72
2022/10/08 06:48:38;;;;;;;10.40;6.30;;;7.60;99.90;;;;;;5037070;28;20033;-72
2022/10/08 06:51:08;;;;;;;13.05;6.60;;;7.60;99.90;;;;;;5036365;28;20053;-72
2022/10/08 06:53:34;;;;;;;14.52;8.13;;;7.60;99.90;;;;;;5036375;28;20021;-72
2022/10/08 06:56:03;;;;;;;14.75;7.43;;;7.60;99.90;;;;;;5036440;28;20022;-72
2022/10/08 06:58:29;;;;;;;13.38;7.75;;;7.60;99.90;;;;;;5036341;28;20022;-72
2022/10/08 07:01:06;;;;;;;13.13;7.72;;;7.60;99.90;;;;;;5036064;28;20112;-71
2022/10/08 07:03:32;;;;;;;21.42;11.60;;;7.70;99.90;;;;;;5036217;28;20048;-70
2022/10/08 07:06:00;;;;;;;21.52;11.90;;;7.70;99.90;;;;;;5036764;28;20033;-71
2022/10/08 07:08:27;;;;;;;23.20;12.38;;;7.70;99.90;;;;;;5036183;28;20397;-70
2022/10/08 07:10:53;;;;;;;22.02;11.45;;;7.70;99.90;;;;;;5034649;28;20026;-71
2022/10/08 07:13:19;;;;;;;20.40;10.05;;;7.80;99.90;;;;;;5034932;28;20080;-70
2022/10/08 07:15:44;;;;;;;17.00;8.68;;;7.90;99.90;;;;;;5035019;28;20040;-70
2022/10/08 07:18:11;;;;;;;11.77;7.05;;;7.90;99.90;;;;;;5036047;28;20469;-71
2022/10/08 07:20:38;;;;;;;13.48;6.55;;;8.00;99.90;;;;;;5036250;28;20045;-71
2022/10/08 07:23:04;;;;;;;12.95;6.20;;;8.00;99.90;;;;;;5035440;28;20034;-70
2022/10/08 07:25:30;;;;;;;11.18;5.45;;;8.10;99.90;;;;;;5036098;28;20419;-71
2022/10/08 07:27:55;;;;;;;8.15;4.75;;;8.10;99.90;;;;;;5034445;28;20116;-71
2022/10/08 07:30:21;;;;;;;8.88;5.05;;;8.10;99.90;;;;;;5035936;28;20076;-71
2022/10/08 07:32:47;;;;;;;6.65;4.53;;;8.20;99.90;;;;;;5035238;28;20022;-71
2022/10/08 07:35:12;;;;;;;11.38;6.30;;;8.20;99.90;;;;;;5035064;28;20113;-71
2022/10/08 07:37:41;;;;;;;9.85;6.13;;;8.30;99.90;;;;;;5035872;28;20037;-71
2022/10/08 07:40:07;;;;;;;11.32;6.53;;;8.40;99.90;;;;;;5029130;28;20080;-71
2022/10/08 07:42:33;;;;;;;11.13;6.32;;;8.40;99.90;;;;;;5053323;28;20098;-70
2022/10/08 07:44:59;;;;;;;12.73;5.93;;;8.50;99.90;;;;;;5054890;28;20476;-70
2022/10/08 07:47:24;;;;;;;9.50;5.53;;;8.60;99.90;;;;;;5035770;28;20021;-70
2022/10/08 07:49:50;;;;;;;8.85;5.25;;;8.70;99.90;;;;;;5031271;28;20092;-70
2022/10/08 07:52:16;;;;;;;8.48;6.22;;;8.80;99.90;;;;;;5034117;28;20536;-71
2022/10/08 07:54:44;;;;;;;7.97;5.22;;;8.90;99.90;;;;;;5034989;28;20432;-71
2022/10/08 07:57:10;;;;;;;8.13;5.57;;;9.00;99.90;;;;;;5034164;28;20033;-71
2022/10/08 07:59:36;;;;;;;8.38;5.68;;;9.10;99.90;;;;;;5035018;28;20033;-71
2022/10/08 08:02:02;;;;;;;9.88;5.32;;;9.20;99.90;;;;;;5041052;28;20038;-71
2022/10/08 08:04:27;;;;;;;12.18;5.80;;;9.30;99.90;;;;;;5036615;28;20080;-71
2022/10/08 08:06:53;;;;;;;10.90;6.63;;;9.40;99.90;;;;;;5047070;28;20112;-71
2022/10/08 08:09:19;;;;;;;9.50;6.65;;;9.50;99.90;;;;;;5041107;28;20076;-71
2022/10/08 08:11:47;;;;;;;10.10;6.25;;;9.70;99.90;;;;;;5032714;28;20033;-71
2022/10/08 08:14:13;;;;;;;9.20;5.63;;;9.80;99.90;;;;;;5035136;28;20405;-71
2022/10/08 08:16:39;;;;;;;8.00;5.65;;;9.90;99.90;;;;;;5033498;28;20025;-71
2022/10/08 08:19:05;;;;;;;12.02;6.80;;;10.00;99.90;;;;;;5033501;28;20105;-71
2022/10/08 08:21:36;;;;;;;7.63;5.53;;;10.00;99.90;;;;;;5034845;28;20183;-71
2022/10/08 08:24:03;;;;;;;;;;;10.10;99.90;;;;;;5034788;28;20466;-72
2022/10/08 08:26:32;;;;;;;10.80;6.28;;;10.10;99.90;;;;;;5033577;28;19905;-73
2022/10/08 08:29:04;;;;;;;10.88;5.90;;;10.10;99.90;;;;;;5034409;28;20101;-73
2022/10/08 08:31:33;;;;;;;13.50;7.05;;;10.10;99.90;;;;;;5038748;28;20035;-73
2022/10/08 08:34:05;;;;;;;10.77;6.88;;;10.10;99.90;;;;;;5042003;28;20032;-73
2022/10/08 08:36:34;;;;;;;11.70;7.10;;;10.20;99.90;;;;;;5034603;28;20100;-72
2022/10/08 08:39:00;;;;;;;11.10;7.20;;;10.20;99.90;;;;;;5051639;28;20025;-72
2022/10/08 08:42:10;;;;;;;13.95;8.25;;;10.30;99.90;;;;;;5046639;28;20025;-72
2022/10/08 08:44:43;;;;;;;10.27;6.40;;;10.30;99.90;;;;;;5026851;28;20042;-73
2022/10/08 08:47:36;;;;;;;12.43;7.38;;;10.50;99.90;;;;;;5041366;28;20026;-74
2022/10/08 08:50:23;;;;;;;10.40;7.60;;;10.50;99.90;;;;;;5023700;28;20037;-71
2022/10/08 08:52:50;;;;;;;12.90;7.55;;;10.60;99.90;;;;;;5014491;28;20391;-73
2022/10/08 08:55:25;;;;;;;11.05;6.90;;;10.60;99.90;;;;;;5013249;28;20505;-74
2022/10/08 08:58:03;;;;;;;13.18;8.05;;;10.70;99.90;;;;;;5014745;28;20029;-74
2022/10/08 09:00:34;;;;;;;9.50;6.75;;;10.80;99.90;;;;;;5014935;28;20026;-74
2022/10/08 09:03:20;;;;;;;;;;;10.90;99.90;;;;;;5023191;28;20104;-74
2022/10/08 09:05:51;;;;;;;14.10;8.75;;;11.00;99.90;;;;;;5034443;28;19912;-74
2022/10/08 09:08:31;;;;;;;13.48;9.30;;;11.20;99.90;;;;;;5034480;28;20036;-70
2022/10/08 09:11:00;;;;;;;12.60;7.70;;;11.30;99.90;;;;;;5033794;28;20393;-70
2022/10/08 09:13:40;;;;;;;12.77;8.75;;;11.50;99.90;;;;;;5033812;28;20032;-70
2022/10/08 09:16:12;;;;;;;13.77;8.02;;;11.60;99.90;;;;;;5033848;28;20388;-73
2022/10/08 09:18:39;;;;;;;15.77;8.30;;;11.70;99.90;;;;;;5034037;28;20044;-73
2022/10/08 09:21:04;;;;;;;10.63;7.95;;;11.80;99.90;;;;;;5034168;28;20361;-74
2022/10/08 09:23:30;;;;;;;11.02;7.95;;;11.90;99.90;;;;;;5034044;28;20056;-74
2022/10/08 09:26:00;;;;;;;11.27;7.22;;;12.00;99.90;;;;;;5033921;28;20478;-72
2022/10/08 09:28:48;;;;;;;12.03;7.37;;;12.20;99.90;;;;;;5033602;28;20029;-72
2022/10/08 09:31:39;;;;;;;10.05;7.32;;;12.20;99.90;;;;;;5030195;28;20481;-72
2022/10/08 09:34:14;;;;;;;14.57;8.38;;;12.40;99.90;;;;;;5033521;28;20049;-72
2022/10/08 09:36:48;;;;;;;13.45;8.00;;;12.50;99.90;;;;;;5033340;28;20029;-72
2022/10/08 09:39:25;;;;;;;11.98;7.25;;;12.60;99.90;;;;;;5026747;28;20028;-71
2022/10/08 09:42:06;;;;;;;9.95;6.07;;;12.80;99.90;;;;;;5049000;28;20104;-72
2022/10/08 09:45:02;;;;;;;9.48;6.53;;;13.10;99.90;;;;;;5053301;28;20031;-72
2022/10/08 09:47:29;;;;;;;11.65;7.22;;;13.20;99.90;;;;;;5051875;28;20083;-72
2022/10/08 09:50:04;;;;;;;16.23;7.32;;;13.40;99.90;;;;;;5053092;28;20025;-72
2022/10/08 09:52:30;;;;;;;12.25;8.57;;;13.50;99.90;;;;;;5053374;28;20104;-72
2022/10/08 09:55:21;;;;;;;11.93;9.13;;;13.60;99.90;;;;;;5053490;28;20029;-72
2022/10/08 09:57:54;;;;;;;11.23;7.38;;;13.80;99.90;;;;;;5053128;28;20032;-72
2022/10/08 10:00:27;;;;;;;13.20;8.10;;;13.90;99.90;;;;;;5052039;28;20575;-72
2022/10/08 10:02:55;;;;;;;14.15;7.60;;;14.00;99.90;;;;;;5052801;28;20037;-72
2022/10/08 10:05:26;;;;;;;14.07;7.65;;;14.10;99.90;;;;;;5052255;28;20369;-72
2022/10/08 10:07:53;;;;;;;12.52;8.52;;;14.10;99.90;;;;;;5013958;28;20022;-72
2022/10/08 10:10:28;;;;;;;14.32;7.53;;;14.20;99.90;;;;;;5021285;28;20339;-72
2022/10/08 10:12:57;;;;;;;10.70;7.10;;;14.20;99.90;;;;;;5033219;28;20087;-72
2022/10/08 10:15:38;;;;;;;11.73;7.82;;;14.20;99.90;;;;;;5033341;28;20430;-72
2022/10/08 10:18:10;;;;;;;;;;;14.30;99.90;;;;;;5033213;28;20029;-72
2022/10/08 10:20:41;;;;;;;13.23;7.63;;;14.40;99.90;;;;;;5033268;28;20320;-72
2022/10/08 10:23:18;;;;;;;11.52;7.38;;;14.50;99.90;;;;;;5033615;28;20053;-72
2022/10/08 10:26:24;;;;;;;8.40;6.60;;;14.50;99.90;;;;;;5041920;28;20048;-72
2022/10/08 10:28:56;;;;;;;9.82;6.85;;;14.70;99.90;;;;;;5013224;28;20030;-72
2022/10/08 10:31:30;;;;;;;10.48;6.55;;;14.80;99.90;;;;;;5032078;28;20060;-72
2022/10/08 10:34:22;;;;;;;9.30;5.53;;;14.80;99.90;;;;;;5053027;28;20029;-72
2022/10/08 10:36:57;;;;;;;9.88;6.00;;;14.80;99.90;;;;;;5053355;28;20519;-70
2022/10/08 10:39:31;;;;;;;8.65;5.75;;;14.80;99.90;;;;;;5033402;28;20041;-70
2022/10/08 10:41:59;;;;;;;9.35;6.03;;;14.70;99.90;;;;;;5031964;28;20028;-71
2022/10/08 10:44:53;;;;;;;9.02;6.00;;;14.90;99.90;;;;;;5031818;28;20026;-70
2022/10/08 10:47:24;;;;;;;10.23;6.30;;;15.00;99.90;;;;;;5029742;28;20041;-70
2022/10/08 10:49:51;;;;;;;7.85;5.80;;;15.20;99.90;;;;;;5033032;28;20032;-70
2022/10/08 10:52:22;;;;;;;7.80;5.93;;;15.40;99.90;;;;;;5032591;28;20066;-69
2022/10/08 10:55:24;;;;;;;9.82;5.65;;;15.60;99.90;;;;;;5032710;28;20029;-69
2022/10/08 10:58:09;;;;;;;11.27;6.35;;;15.70;99.90;;;;;;5032628;28;20025;-69
2022/10/08 11:00:50;;;;;;;9.75;5.60;;;15.90;99.90;;;;;;5032727;28;20581;-69
2022/10/08 11:03:21;;;;;;;7.13;4.97;;;16.00;99.90;;;;;;5032973;28;20113;-69
2022/10/08 11:05:55;;;;;;;15.98;4.90;;;16.10;99.90;;;;;;5031527;28;20431;-69
2022/10/08 11:09:08;;;;;;;6.07;4.75;;;16.20;99.90;;;;;;5035622;28;20029;-69
2022/10/08 11:12:00;;;;;;;11.15;5.32;;;16.30;99.90;;;;;;5014394;28;20068;-69
2022/10/08 11:14:41;;;;;;;8.23;5.70;;;16.50;99.90;;;;;;5016450;28;20026;-69
2022/10/08 11:17:16;;;;;;;10.95;5.57;;;16.60;99.90;;;;;;5014864;28;20021;-69
2022/10/08 11:20:38;;;;;;;12.60;5.32;;;16.70;99.90;;;;;;5016235;28;20105;-69
2022/10/08 11:23:16;;;;;;;8.98;4.60;;;16.90;99.90;;;;;;4989249;28;20065;-70
2022/10/08 11:25:47;;;;;;;7.57;4.43;;;17.00;99.90;;;;;;5016606;28;20485;-69
2022/10/08 11:28:23;;;;;;;5.55;4.18;;;17.10;99.90;;;;;;5016070;28;20026;-70
2022/10/08 11:31:04;;;;;;;6.13;4.20;;;17.10;99.90;;;;;;5015993;28;20034;-70
2022/10/08 11:33:31;;;;;;;7.07;4.20;;;17.30;99.90;;;;;;5015640;28;20022;-70
2022/10/08 11:36:15;;;;;;;7.05;4.05;;;17.40;99.90;;;;;;5016331;28;20030;-70
2022/10/08 11:39:01;;;;;;;8.95;4.22;;;17.50;99.90;;;;;;5016108;28;20030;-70
2022/10/08 11:42:05;;;;;;;7.45;4.05;;;17.60;99.90;;;;;;5029603;28;20091;-69
2022/10/08 11:44:31;;;;;;;8.50;4.10;;;17.80;99.90;;;;;;5029365;28;20120;-70
2022/10/08 11:47:35;;;;;;;7.40;4.53;;;17.80;99.90;;;;;;5035770;28;20797;-70
2022/10/08 11:50:04;;;;;;;8.07;3.85;;;17.80;99.90;;;;;;5035362;28;20026;-70
2022/10/08 11:52:31;;;;;;;9.63;3.72;;;17.90;99.90;;;;;;5035550;28;20033;-70
2022/10/08 11:55:00;;;;;;;5.95;3.63;;;18.00;99.90;;;;;;5035420;28;20404;-70
2022/10/08 11:57:33;;;;;;;9.43;4.30;;;18.20;99.90;;;;;;5035346;28;20116;-69
2022/10/08 12:00:04;;;;;;;9.43;3.70;;;18.30;99.90;;;;;;5035343;28;20024;-70
2022/10/08 12:02:32;;;;;;;8.75;4.05;;;18.30;99.90;;;;;;5034926;28;20025;-70
2022/10/08 12:05:15;;;;;;;7.85;3.63;;;18.30;99.90;;;;;;5035186;28;20025;-70
2022/10/08 12:07:49;;;;;;;6.90;4.10;;;18.30;99.90;;;;;;5035418;28;20378;-70
2022/10/08 12:10:18;;;;;;;6.57;3.40;;;18.40;99.90;;;;;;5035414;28;20428;-70
2022/10/08 12:12:50;;;;;;;8.15;3.97;;;18.40;99.90;;;;;;5034905;28;20021;-70
2022/10/08 12:15:27;;;;;;;5.80;3.20;;;18.60;99.90;;;;;;5034929;28;20100;-70
2022/10/08 12:17:56;;;;;;;8.00;3.50;;;18.80;99.90;;;;;;5032679;28;20021;-69
2022/10/08 12:20:23;;;;;;;7.18;3.38;;;18.90;99.90;;;;;;5034402;28;20029;-70
2022/10/08 12:22:59;;;;;;;8.50;3.45;;;19.00;99.90;;;;;;5034720;28;20449;-69
2022/10/08 12:25:32;;;;;;;5.32;3.03;;;19.10;99.90;;;;;;5035042;28;20037;-69
2022/10/08 12:28:26;;;;;;;7.15;2.80;;;19.20;99.90;;;;;;5034731;28;20116;-69
2022/10/08 12:30:54;;;;;;;7.15;3.00;;;19.40;99.90;;;;;;5034547;28;20100;-69
2022/10/08 12:33:21;;;;;;;5.13;2.80;;;19.40;99.90;;;;;;5034360;28;20105;-69
2022/10/08 12:35:56;;;;;;;10.68;3.25;;;19.40;99.90;;;;;;5034579;28;20500;-69
2022/10/08 12:38:27;;;;;;;4.72;3.05;;;19.40;99.90;;;;;;5034424;28;20044;-70
2022/10/08 12:41:11;;;;;;;7.63;2.58;;;19.40;99.90;;;;;;5033452;28;20415;-70
2022/10/08 12:43:49;;;;;;;5.57;2.90;;;19.40;99.90;;;;;;5034469;28;20030;-69
2022/10/08 12:46:32;;;;;;;7.53;3.38;;;19.40;99.90;;;;;;5034379;28;20570;-69
2022/10/08 12:49:15;;;;;;;7.82;2.78;;;19.50;99.90;;;;;;5034093;28;20514;-68
2022/10/08 12:51:53;;;;;;;6.93;3.60;;;19.50;99.90;;;;;;5034191;28;20021;-69
2022/10/08 12:54:23;;;;;;;9.40;2.70;;;19.60;99.90;;;;;;5034128;28;20022;-69
2022/10/08 12:56:50;;;;;;;6.15;2.50;;;19.60;99.90;;;;;;5032924;28;20025;-69
2022/10/08 12:59:18;;;;;;;7.95;2.90;;;19.70;99.90;;;;;;5034408;28;20029;-69
2022/10/08 13:01:46;;;;;;;7.60;3.05;;;19.70;99.70;;;;;;5034138;28;20034;-67
2022/10/08 13:04:15;;;;;;;6.80;2.58;;;19.70;99.60;;;;;;5032751;28;20067;-68
2022/10/08 13:06:41;;;;;;;7.63;3.92;;;19.60;99.80;;;;;;5034189;28;20021;-68
2022/10/08 13:09:27;;;;;;;12.88;3.90;;;19.50;99.40;;;;;;5033380;28;20029;-68
2022/10/08 13:11:55;;;;;;;9.52;2.90;;;19.50;99.50;;;;;;5029564;28;20382;-69
2022/10/08 13:14:29;;;;;;;9.05;2.75;;;19.50;99.30;;;;;;5031861;28;20108;-68
2022/10/08 13:16:55;;;;;;;6.68;2.50;;;19.50;99.60;;;;;;5033986;28;20017;-69